createdAt,value
2023-02-17T00:00:44.850Z,8.55
2023-02-17T00:02:47.652Z,7.97
2023-02-17T00:04:50.317Z,7.45
2023-02-17T00:06:54.356Z,7.10
2023-02-17T00:08:57.623Z,10.13
2023-02-17T00:11:01.315Z,8.88
2023-02-17T00:13:03.945Z,7.25
2023-02-17T00:15:06.951Z,6.07
2023-02-17T00:17:09.573Z,6.72
2023-02-17T00:19:25.913Z,6.20
2023-02-17T00:21:30.665Z,8.45
2023-02-17T00:23:34.668Z,6.07
2023-02-17T00:25:38.648Z,6.80
2023-02-17T00:27:41.315Z,8.32
2023-02-17T00:29:44.088Z,9.00
2023-02-17T00:31:47.651Z,8.90
2023-02-17T00:33:50.653Z,6.45
2023-02-17T00:35:53.253Z,6.47
2023-02-17T00:37:55.927Z,4.70
2023-02-17T00:39:59.905Z,9.07
2023-02-17T00:42:02.598Z,8.75
2023-02-17T00:44:05.449Z,5.13
2023-02-17T00:46:08.836Z,6.70
2023-02-17T00:48:11.775Z,8.15
2023-02-17T00:50:14.476Z,6.88
2023-02-17T00:52:17.079Z,7.63
2023-02-17T00:54:20.454Z,7.22
2023-02-17T00:56:24.425Z,6.85
2023-02-17T00:58:27.413Z,7.32
2023-02-17T01:00:30.005Z,6.85
2023-02-17T01:02:32.713Z,6.85
2023-02-17T01:04:35.476Z,9.48
2023-02-17T01:06:40.620Z,5.53
2023-02-17T01:08:43.273Z,7.05
2023-02-17T01:10:48.398Z,8.50
2023-02-17T01:12:52.438Z,7.13
2023-02-17T01:14:55.020Z,6.03
2023-02-17T01:16:57.711Z,5.72
2023-02-17T01:19:00.368Z,5.38
2023-02-17T01:21:03.076Z,6.68
2023-02-17T01:23:06.160Z,8.02
2023-02-17T01:25:09.269Z,7.30
2023-02-17T01:27:12.122Z,10.80
2023-02-17T01:29:16.219Z,5.88
2023-02-17T01:31:19.697Z,6.78
2023-02-17T01:33:22.350Z,8.63
2023-02-17T01:35:25.003Z,6.43
2023-02-17T01:37:27.614Z,6.07
2023-02-17T01:39:30.219Z,8.95
2023-02-17T01:41:33.015Z,5.57
2023-02-17T01:43:36.373Z,7.38
2023-02-17T01:45:46.992Z,7.38
2023-02-17T01:47:55.130Z,7.22
2023-02-17T01:49:57.797Z,7.07
2023-02-17T01:52:08.349Z,5.40
2023-02-17T01:54:16.742Z,7.50
2023-02-17T01:56:20.063Z,6.53
2023-02-17T01:58:25.811Z,5.85
2023-02-17T02:00:31.299Z,5.25
2023-02-17T02:02:35.509Z,5.75
2023-02-17T02:04:41.785Z,7.13
2023-02-17T02:06:45.594Z,5.18
2023-02-17T02:08:55.436Z,7.60
2023-02-17T02:10:58.044Z,6.82
2023-02-17T02:13:00.965Z,7.13
2023-02-17T02:15:07.931Z,6.35
2023-02-17T02:17:18.438Z,8.50
2023-02-17T02:19:56.832Z,6.30
2023-02-17T02:22:21.097Z,7.70
2023-02-17T02:24:31.268Z,9.60
2023-02-17T02:27:12.027Z,6.53
2023-02-17T02:29:43.265Z,7.20
2023-02-17T02:31:58.360Z,7.15
2023-02-17T02:34:08.154Z,5.85
2023-02-17T02:36:14.634Z,5.78
2023-02-17T02:38:21.385Z,10.18
2023-02-17T02:42:29.538Z,8.90
2023-02-17T02:44:32.513Z,6.93
2023-02-17T02:46:35.329Z,5.65
2023-02-17T02:48:38.862Z,4.82
2023-02-17T02:50:56.777Z,5.35
2023-02-17T02:53:24.496Z,5.78
2023-02-17T02:55:44.755Z,6.30
2023-02-17T02:57:53.724Z,9.27
2023-02-17T03:00:10.737Z,7.70
2023-02-17T03:02:22.236Z,8.65
2023-02-17T03:04:36.150Z,7.65
2023-02-17T03:06:46.598Z,7.25
2023-02-17T03:08:54.273Z,6.25
2023-02-17T03:10:57.342Z,6.63
2023-02-17T03:13:02.838Z,8.82
2023-02-17T03:15:11.565Z,6.57
2023-02-17T03:17:14.190Z,5.35
2023-02-17T03:19:19.477Z,8.95
2023-02-17T03:21:22.222Z,5.82
2023-02-17T03:23:26.317Z,5.55
2023-02-17T03:25:28.914Z,7.03
2023-02-17T03:27:31.536Z,5.47
2023-02-17T03:29:34.222Z,7.40
2023-02-17T03:31:37.636Z,7.18
2023-02-17T03:33:40.340Z,9.32
2023-02-17T03:35:42.953Z,7.32
2023-02-17T03:37:45.677Z,8.40
2023-02-17T03:39:49.802Z,5.47
2023-02-17T03:41:52.507Z,12.93
2023-02-17T03:43:55.206Z,6.78
2023-02-17T03:45:57.852Z,7.18
2023-02-17T03:48:00.601Z,6.50
2023-02-17T03:50:03.341Z,5.93
2023-02-17T03:52:06.327Z,5.03
2023-02-17T03:54:09.158Z,6.82
2023-02-17T03:56:14.627Z,6.85
2023-02-17T03:58:17.229Z,6.88
2023-02-17T04:00:21.000Z,5.07
2023-02-17T04:02:23.651Z,5.50
2023-02-17T04:04:26.350Z,6.30
2023-02-17T04:06:29.090Z,8.27
2023-02-17T04:08:31.790Z,6.00
2023-02-17T04:10:34.424Z,6.40
2023-02-17T04:12:38.525Z,6.63
2023-02-17T04:14:41.148Z,7.50
2023-02-17T04:16:43.802Z,5.18
2023-02-17T04:18:46.519Z,6.95
2023-02-17T04:20:50.607Z,10.50
2023-02-17T04:22:53.263Z,5.43
2023-02-17T04:24:55.965Z,5.97
2023-02-17T04:26:58.661Z,6.68
2023-02-17T04:29:04.737Z,7.28
2023-02-17T04:31:07.913Z,7.80
2023-02-17T04:33:10.616Z,7.28
2023-02-17T04:35:13.292Z,5.95
2023-02-17T04:37:15.881Z,7.32
2023-02-17T04:39:18.550Z,7.72
2023-02-17T04:41:21.224Z,8.80
2023-02-17T04:43:24.328Z,8.27
2023-02-17T04:45:28.814Z,5.47
2023-02-17T04:47:31.444Z,9.07
2023-02-17T04:49:34.359Z,7.43
2023-02-17T04:51:37.048Z,5.40
2023-02-17T04:53:39.815Z,5.68
2023-02-17T04:55:42.865Z,6.60
2023-02-17T04:57:45.574Z,7.32
2023-02-17T04:59:48.967Z,6.28
2023-02-17T05:01:52.919Z,6.45
2023-02-17T05:03:55.583Z,5.47
2023-02-17T05:05:58.200Z,5.72
2023-02-17T05:08:00.878Z,7.82
2023-02-17T05:10:03.533Z,6.97
2023-02-17T05:12:07.578Z,8.10
2023-02-17T05:14:10.296Z,6.90
2023-02-17T05:16:13.113Z,5.80
2023-02-17T05:18:17.262Z,7.20
2023-02-17T05:20:20.036Z,6.18
2023-02-17T05:22:22.684Z,7.88
2023-02-17T05:24:25.298Z,5.72
2023-02-17T05:26:28.101Z,7.50
2023-02-17T05:28:30.743Z,7.18
2023-02-17T05:30:33.440Z,5.50
2023-02-17T05:32:36.175Z,6.90
2023-02-17T05:34:40.546Z,6.53
2023-02-17T05:36:43.163Z,7.70
2023-02-17T05:38:49.119Z,6.25
2023-02-17T05:40:51.880Z,7.32
2023-02-17T05:42:54.497Z,8.27
2023-02-17T05:44:57.255Z,5.07
2023-02-17T05:46:59.885Z,5.63
2023-02-17T05:49:02.540Z,6.80
2023-02-17T05:51:06.920Z,7.40
2023-02-17T05:53:09.544Z,7.88
2023-02-17T05:55:12.202Z,6.07
2023-02-17T05:57:15.022Z,7.47
2023-02-17T05:59:17.839Z,6.78
2023-02-17T06:01:20.700Z,6.30
2023-02-17T06:03:23.311Z,6.47
2023-02-17T06:05:25.898Z,6.57
2023-02-17T06:07:29.813Z,6.03
2023-02-17T06:09:32.581Z,7.90
2023-02-17T06:11:35.283Z,6.97
2023-02-17T06:13:38.409Z,9.07
2023-02-17T06:15:41.857Z,5.85
2023-02-17T06:17:44.541Z,8.15
2023-02-17T06:19:47.197Z,6.00
2023-02-17T06:21:49.913Z,8.48
2023-02-17T06:23:53.946Z,8.55
2023-02-17T06:25:56.844Z,6.82
2023-02-17T06:27:59.669Z,8.27
2023-02-17T06:30:02.506Z,6.18
2023-02-17T06:32:05.564Z,6.25
2023-02-17T06:34:08.179Z,9.75
2023-02-17T06:36:11.133Z,7.53
2023-02-17T06:38:13.871Z,7.35
2023-02-17T06:40:18.645Z,7.18
2023-02-17T06:42:21.266Z,5.80
2023-02-17T06:44:23.976Z,6.40
2023-02-17T06:46:26.588Z,8.05
2023-02-17T06:48:29.209Z,7.63
2023-02-17T06:50:32.017Z,6.63
2023-02-17T06:52:34.722Z,7.18
2023-02-17T06:54:37.388Z,6.43
2023-02-17T06:56:41.472Z,6.13
2023-02-17T06:58:44.082Z,7.88
2023-02-17T07:00:46.791Z,7.13
2023-02-17T07:02:49.589Z,5.50
2023-02-17T07:04:52.259Z,6.72
2023-02-17T07:06:54.966Z,6.25
2023-02-17T07:08:57.573Z,6.78
2023-02-17T07:11:00.240Z,6.05
2023-02-17T07:13:04.438Z,6.68
2023-02-17T07:15:09.437Z,6.78
2023-02-17T07:17:14.560Z,7.28
2023-02-17T07:19:17.349Z,6.32
2023-02-17T07:21:19.985Z,8.15
2023-02-17T07:23:22.666Z,5.93
2023-02-17T07:25:25.298Z,7.90
2023-02-17T07:27:27.930Z,7.28
2023-02-17T07:29:31.960Z,6.97
2023-02-17T07:31:35.479Z,7.40
2023-02-17T07:33:38.567Z,6.65
2023-02-17T07:35:43.882Z,6.20
2023-02-17T07:37:46.473Z,5.68
2023-02-17T07:39:49.199Z,6.70
2023-02-17T07:41:51.825Z,5.88
2023-02-17T07:43:56.149Z,6.43
2023-02-17T07:46:00.216Z,6.32
2023-02-17T07:48:02.821Z,7.50
2023-02-17T07:50:06.452Z,7.15
2023-02-17T07:52:09.104Z,5.78
2023-02-17T07:54:13.160Z,5.95
2023-02-17T07:56:17.274Z,6.22
2023-02-17T07:58:19.854Z,6.45
2023-02-17T08:00:22.891Z,5.93
2023-02-17T08:02:27.044Z,5.43
2023-02-17T08:04:29.731Z,4.65
2023-02-17T08:06:32.763Z,4.88
2023-02-17T08:08:53.164Z,12.48
2023-02-17T08:11:13.373Z,7.13
2023-02-17T08:13:21.965Z,7.30
2023-02-17T08:15:24.637Z,5.53
2023-02-17T08:17:28.754Z,6.55
2023-02-17T08:19:46.728Z,5.10
2023-02-17T08:21:50.698Z,5.97
2023-02-17T08:23:53.592Z,5.72
2023-02-17T08:25:58.566Z,6.07
2023-02-17T08:28:01.211Z,6.03
2023-02-17T08:30:03.984Z,6.65
2023-02-17T08:32:06.881Z,6.40
2023-02-17T08:34:13.192Z,4.63
2023-02-17T08:36:15.933Z,5.15
2023-02-17T08:38:18.637Z,5.50
2023-02-17T08:40:21.416Z,6.45
2023-02-17T08:42:24.068Z,5.00
2023-02-17T08:44:27.109Z,5.95
2023-02-17T08:46:30.979Z,6.25
2023-02-17T08:48:35.873Z,7.80
2023-02-17T08:50:40.693Z,6.80
2023-02-17T08:52:43.570Z,5.97
2023-02-17T08:54:46.425Z,7.05
2023-02-17T08:56:49.082Z,7.65
2023-02-17T08:58:52.046Z,7.93
2023-02-17T09:00:54.705Z,5.95
2023-02-17T09:02:57.322Z,5.18
2023-02-17T09:05:00.110Z,4.22
2023-02-17T09:07:04.176Z,4.50
2023-02-17T09:09:08.099Z,5.93
2023-02-17T09:11:11.117Z,4.68
2023-02-17T09:13:13.893Z,5.45
2023-02-17T09:15:16.521Z,4.57
2023-02-17T09:17:19.230Z,5.03
2023-02-17T09:19:22.628Z,7.60
2023-02-17T09:21:25.544Z,5.07
2023-02-17T09:23:29.705Z,5.38
2023-02-17T09:25:32.413Z,5.65
2023-02-17T09:27:35.116Z,5.95
2023-02-17T09:29:38.018Z,8.82
2023-02-17T09:31:40.823Z,4.68
2023-02-17T09:33:44.541Z,4.50
2023-02-17T09:35:47.209Z,4.63
2023-02-17T09:37:49.983Z,5.07
2023-02-17T09:39:53.973Z,5.65
2023-02-17T09:41:57.831Z,5.60
2023-02-17T09:44:01.333Z,6.95
2023-02-17T09:46:15.940Z,4.90
2023-02-17T09:48:21.678Z,5.70
2023-02-17T09:50:30.554Z,4.75
2023-02-17T09:52:40.181Z,7.13
2023-02-17T09:54:54.943Z,6.10
2023-02-17T09:57:01.436Z,4.63
2023-02-17T09:59:09.326Z,6.78
2023-02-17T10:01:19.140Z,6.53
2023-02-17T10:03:30.965Z,5.97
2023-02-17T10:05:37.713Z,4.47
2023-02-17T10:07:44.861Z,5.40
2023-02-17T10:09:51.620Z,7.95
2023-02-17T10:14:04.657Z,5.05
2023-02-17T10:16:14.829Z,4.93
2023-02-17T10:18:21.009Z,4.55
2023-02-17T10:20:27.096Z,6.22
2023-02-17T10:22:32.632Z,4.72
2023-02-17T10:24:35.410Z,5.53
2023-02-17T10:26:53.467Z,4.88
2023-02-17T10:29:04.767Z,4.35
2023-02-17T10:31:14.014Z,5.43
2023-02-17T10:33:26.014Z,5.97
2023-02-17T10:35:43.782Z,3.22
2023-02-17T10:37:49.128Z,4.63
2023-02-17T10:39:53.629Z,3.40
2023-02-17T10:41:59.591Z,6.05
2023-02-17T10:44:10.077Z,6.03
2023-02-17T10:46:16.497Z,4.53
2023-02-17T10:48:22.614Z,4.85
2023-02-17T10:50:26.554Z,4.90
2023-02-17T10:52:37.384Z,3.78
2023-02-17T10:54:48.109Z,6.10
2023-02-17T10:56:55.862Z,4.00
2023-02-17T10:59:06.348Z,4.70
2023-02-17T11:01:09.335Z,4.25
2023-02-17T11:03:20.394Z,3.75
2023-02-17T11:05:26.598Z,4.63
2023-02-17T11:07:35.869Z,5.13
2023-02-17T11:09:45.899Z,3.63
2023-02-17T11:12:00.513Z,3.55
2023-02-17T11:14:13.306Z,3.58
2023-02-17T11:16:28.277Z,4.10
2023-02-17T11:18:34.252Z,4.07
2023-02-17T11:20:38.277Z,3.38
2023-02-17T11:22:44.542Z,3.92
2023-02-17T11:24:58.699Z,3.65
2023-02-17T11:27:03.601Z,4.53
2023-02-17T11:29:16.413Z,5.10
2023-02-17T11:31:27.187Z,4.05
2023-02-17T11:33:33.219Z,4.28
2023-02-17T11:35:48.354Z,4.22
2023-02-17T11:37:51.487Z,5.63
2023-02-17T11:39:56.218Z,3.85
2023-02-17T11:41:59.135Z,2.53
2023-02-17T11:44:01.817Z,4.20
2023-02-17T11:46:18.592Z,3.25
2023-02-17T11:48:45.776Z,4.45
2023-02-17T11:50:53.485Z,2.80
2023-02-17T11:53:09.131Z,3.83
2023-02-17T11:55:20.177Z,3.67
2023-02-17T11:57:36.736Z,2.97
2023-02-17T12:00:00.894Z,3.38
2023-02-17T12:02:16.060Z,3.47
2023-02-17T12:04:27.292Z,2.97
2023-02-17T12:06:39.815Z,2.65
2023-02-17T12:11:07.931Z,2.70
2023-02-17T12:13:25.612Z,2.83
2023-02-17T12:15:38.159Z,3.17
2023-02-17T12:19:57.949Z,2.20
2023-02-17T12:22:14.696Z,3.08
2023-02-17T12:24:35.574Z,3.45
2023-02-17T12:26:40.825Z,3.50
2023-02-17T12:28:59.976Z,3.60
2023-02-17T12:31:11.167Z,3.40
2023-02-17T12:33:31.650Z,3.88
2023-02-17T12:35:43.842Z,3.78
2023-02-17T12:37:51.603Z,4.78
2023-02-17T12:39:57.219Z,3.75
2023-02-17T12:42:03.753Z,3.83
2023-02-17T12:46:16.613Z,3.55
2023-02-17T12:48:27.717Z,3.63
2023-02-17T12:50:36.480Z,4.03
2023-02-17T12:52:43.573Z,1.52
2023-02-17T12:54:52.049Z,3.40
2023-02-17T12:57:06.628Z,2.55
2023-02-17T12:59:17.579Z,3.58
2023-02-17T13:01:22.380Z,3.60
2023-02-17T13:03:30.590Z,3.60
2023-02-17T13:05:41.383Z,2.42
2023-02-17T13:07:50.554Z,2.85
2023-02-17T13:09:55.927Z,4.10
2023-02-17T13:12:10.150Z,3.38
2023-02-17T13:14:13.166Z,4.35
2023-02-17T13:16:16.110Z,3.08
2023-02-17T13:18:30.644Z,4.22
2023-02-17T13:20:55.769Z,3.25
2023-02-17T13:23:07.757Z,3.70
2023-02-17T13:25:13.902Z,2.83
2023-02-17T13:27:22.502Z,4.50
2023-02-17T13:29:36.655Z,2.90
2023-02-17T13:31:52.232Z,3.83
2023-02-17T13:33:58.811Z,3.20
2023-02-17T13:36:13.276Z,3.67
2023-02-17T13:38:27.357Z,2.20
2023-02-17T13:40:39.406Z,2.17
2023-02-17T13:42:44.149Z,2.63
2023-02-17T13:44:49.064Z,3.78
2023-02-17T13:46:52.657Z,3.88
2023-02-17T13:49:07.468Z,3.33
2023-02-17T13:51:26.111Z,4.00
2023-02-17T13:53:31.660Z,2.58
2023-02-17T13:55:34.322Z,3.08
2023-02-17T13:57:38.119Z,2.75
2023-02-17T13:59:40.931Z,3.92
2023-02-17T14:01:44.542Z,2.95
2023-02-17T14:03:50.660Z,3.85
2023-02-17T14:05:55.996Z,2.35
2023-02-17T14:08:04.501Z,3.15
2023-02-17T14:10:18.892Z,3.10
2023-02-17T14:12:24.451Z,4.13
2023-02-17T14:14:30.578Z,3.00
2023-02-17T14:16:36.161Z,3.53
2023-02-17T14:18:42.702Z,3.05
2023-02-17T14:20:45.349Z,4.45
2023-02-17T14:23:04.146Z,2.55
2023-02-17T14:25:12.242Z,5.97
2023-02-17T14:27:14.960Z,4.65
2023-02-17T14:29:17.726Z,3.58
2023-02-17T14:31:22.302Z,2.80
2023-02-17T14:33:26.111Z,3.03
2023-02-17T14:35:28.780Z,3.28
2023-02-17T14:37:36.197Z,3.13
2023-02-17T14:39:40.227Z,3.83
2023-02-17T14:41:43.261Z,4.18
2023-02-17T14:43:46.378Z,3.40
2023-02-17T14:45:49.077Z,2.85
2023-02-17T14:47:51.750Z,4.03
2023-02-17T14:49:54.401Z,3.42
2023-02-17T14:51:57.822Z,4.15
2023-02-17T14:54:03.250Z,4.03
2023-02-17T14:56:10.525Z,3.60
2023-02-17T14:58:19.741Z,4.07
2023-02-17T15:00:22.844Z,5.28
2023-02-17T15:02:25.570Z,4.90
2023-02-17T15:04:28.264Z,3.72
2023-02-17T15:06:37.524Z,3.85
2023-02-17T15:08:40.224Z,3.85
2023-02-17T15:10:43.665Z,3.35
2023-02-17T15:12:47.734Z,4.07
2023-02-17T15:14:50.347Z,5.30
2023-02-17T15:16:53.076Z,5.20
2023-02-17T15:18:55.764Z,4.68
2023-02-17T15:20:58.430Z,3.50
2023-02-17T15:23:01.086Z,5.22
2023-02-17T15:25:03.714Z,3.60
2023-02-17T15:27:07.137Z,3.85
2023-02-17T15:29:16.640Z,4.50
2023-02-17T15:31:20.905Z,4.40
2023-02-17T15:33:24.839Z,5.05
2023-02-17T15:35:28.560Z,3.67
2023-02-17T15:37:31.134Z,8.05
2023-02-17T15:39:33.779Z,5.47
2023-02-17T15:41:36.462Z,3.47
2023-02-17T15:43:39.234Z,4.97
2023-02-17T15:45:43.687Z,5.60
2023-02-17T15:47:46.966Z,6.78
2023-02-17T15:49:49.633Z,6.57
2023-02-17T15:51:52.306Z,4.43
2023-02-17T15:53:54.893Z,3.92
2023-02-17T15:56:01.096Z,3.85
2023-02-17T15:58:05.430Z,4.75
2023-02-17T16:00:17.831Z,5.50
2023-02-17T16:02:24.320Z,4.10
2023-02-17T16:04:26.997Z,4.05
2023-02-17T16:06:30.332Z,4.88
2023-02-17T16:08:32.934Z,4.93
2023-02-17T16:10:36.962Z,4.90
2023-02-17T16:12:40.867Z,3.53
2023-02-17T16:14:45.251Z,5.32
2023-02-17T16:16:47.982Z,5.63
2023-02-17T16:18:52.778Z,4.78
2023-02-17T16:20:55.433Z,4.35
2023-02-17T16:22:58.030Z,3.90
2023-02-17T16:25:00.733Z,4.63
2023-02-17T16:27:03.477Z,5.03
2023-02-17T16:29:14.165Z,4.65
2023-02-17T16:31:16.840Z,3.97
2023-02-17T16:33:19.645Z,4.05
2023-02-17T16:35:25.329Z,3.90
2023-02-17T16:37:27.975Z,4.15
2023-02-17T16:39:30.999Z,4.88
2023-02-17T16:41:33.667Z,5.20
2023-02-17T16:43:36.359Z,5.30
2023-02-17T16:45:46.689Z,4.20
2023-02-17T16:47:51.590Z,4.20
2023-02-17T16:49:54.327Z,3.95
2023-02-17T16:51:58.456Z,3.40
2023-02-17T16:54:01.064Z,5.60
2023-02-17T16:56:14.344Z,3.88
2023-02-17T16:58:19.863Z,5.63
2023-02-17T17:00:27.615Z,5.38
2023-02-17T17:04:32.772Z,5.13
2023-02-17T17:06:36.479Z,5.28
2023-02-17T17:08:40.522Z,4.97
2023-02-17T17:10:44.438Z,3.45
2023-02-17T17:12:47.587Z,4.05
2023-02-17T17:14:50.270Z,5.03
2023-02-17T17:16:56.479Z,3.75
2023-02-17T17:18:59.928Z,4.35
2023-02-17T17:21:02.595Z,4.10
2023-02-17T17:23:08.058Z,4.32
2023-02-17T17:25:12.080Z,4.55
2023-02-17T17:27:14.662Z,3.70
2023-02-17T17:29:18.905Z,4.72
2023-02-17T17:31:22.277Z,4.93
2023-02-17T17:33:25.016Z,4.57
2023-02-17T17:35:28.371Z,5.82
2023-02-17T17:37:31.087Z,4.38
2023-02-17T17:39:33.812Z,3.53
2023-02-17T17:41:37.803Z,4.00
2023-02-17T17:43:40.866Z,3.28
2023-02-17T17:45:43.562Z,4.97
2023-02-17T17:47:46.379Z,3.88
2023-02-17T17:49:49.026Z,3.83
2023-02-17T17:51:51.864Z,4.45
2023-02-17T17:53:54.637Z,4.53
2023-02-17T17:55:57.421Z,4.50
2023-02-17T17:58:01.509Z,3.92
2023-02-17T18:00:06.322Z,5.75
2023-02-17T18:02:09.606Z,5.15
2023-02-17T18:04:12.247Z,4.97
2023-02-17T18:06:19.237Z,4.80
2023-02-17T18:08:21.944Z,4.13
2023-02-17T18:10:24.888Z,6.85
2023-02-17T18:12:27.618Z,3.67
2023-02-17T18:14:32.076Z,6.68
2023-02-17T18:16:36.078Z,6.32
2023-02-17T18:18:39.086Z,4.65
2023-02-17T18:20:42.052Z,4.30
2023-02-17T18:22:45.001Z,5.32
2023-02-17T18:24:47.798Z,3.95
2023-02-17T18:26:51.953Z,5.75
2023-02-17T18:28:54.579Z,5.30
2023-02-17T18:30:59.203Z,5.78
2023-02-17T18:33:02.043Z,5.53
2023-02-17T18:35:05.789Z,4.72
2023-02-17T18:37:08.408Z,3.97
2023-02-17T18:39:11.200Z,5.28
2023-02-17T18:41:18.257Z,4.22
2023-02-17T18:43:20.921Z,4.50
2023-02-17T18:45:24.379Z,4.53
2023-02-17T18:47:28.370Z,6.57
2023-02-17T18:49:31.028Z,4.57
2023-02-17T18:51:33.749Z,4.65
2023-02-17T18:53:36.594Z,5.38
2023-02-17T18:55:39.636Z,5.25
2023-02-17T18:57:42.859Z,3.85
2023-02-17T18:59:45.522Z,4.82
2023-02-17T19:01:48.372Z,4.88
2023-02-17T19:03:52.971Z,5.70
2023-02-17T19:05:55.649Z,4.93
2023-02-17T19:07:58.887Z,5.25
2023-02-17T19:10:01.667Z,6.07
2023-02-17T19:12:05.066Z,3.92
2023-02-17T19:14:07.714Z,4.22
2023-02-17T19:16:12.742Z,4.85
2023-02-17T19:18:15.399Z,4.55
2023-02-17T19:20:19.695Z,4.57
2023-02-17T19:22:22.382Z,6.03
2023-02-17T19:24:25.261Z,4.35
2023-02-17T19:26:27.894Z,4.07
2023-02-17T19:28:30.615Z,5.57
2023-02-17T19:30:33.272Z,4.57
2023-02-17T19:32:35.911Z,4.22
2023-02-17T19:34:39.750Z,5.30
2023-02-17T19:36:43.752Z,3.20
2023-02-17T19:38:46.990Z,4.13
2023-02-17T19:40:49.660Z,5.30
2023-02-17T19:42:52.357Z,4.47
2023-02-17T19:44:55.138Z,4.60
2023-02-17T19:46:58.204Z,4.38
2023-02-17T19:49:00.936Z,4.97
2023-02-17T19:51:06.177Z,6.05
2023-02-17T19:53:10.190Z,7.03
2023-02-17T19:55:13.006Z,6.50
2023-02-17T19:57:17.276Z,5.88
2023-02-17T19:59:20.203Z,7.88
2023-02-17T20:01:24.772Z,5.05
2023-02-17T20:03:27.437Z,4.30
2023-02-17T20:05:31.304Z,7.90
2023-02-17T20:07:34.083Z,5.82
2023-02-17T20:09:38.659Z,5.38
2023-02-17T20:11:41.511Z,4.40
2023-02-17T20:13:46.543Z,5.82
2023-02-17T20:15:58.452Z,5.97
2023-02-17T20:18:01.116Z,5.75
2023-02-17T20:20:03.876Z,4.15
2023-02-17T20:22:07.106Z,4.13
2023-02-17T20:24:09.771Z,3.70
2023-02-17T20:26:16.701Z,3.00
2023-02-17T20:28:19.558Z,3.70
2023-02-17T20:30:22.477Z,3.00
2023-02-17T20:32:25.271Z,4.25
2023-02-17T20:34:30.931Z,3.63
2023-02-17T20:36:33.959Z,4.55
2023-02-17T20:38:37.401Z,4.25
2023-02-17T20:40:40.065Z,3.28
2023-02-17T20:42:44.179Z,3.42
2023-02-17T20:44:50.187Z,3.50
2023-02-17T20:46:53.492Z,2.95
2023-02-17T20:48:56.564Z,4.63
2023-02-17T20:50:59.805Z,2.85
2023-02-17T20:53:02.769Z,2.50
2023-02-17T20:55:05.718Z,3.08
2023-02-17T20:57:13.706Z,3.08
2023-02-17T20:59:17.817Z,3.05
2023-02-17T21:01:20.648Z,2.95
2023-02-17T21:03:23.241Z,2.67
2023-02-17T21:05:26.300Z,3.22
2023-02-17T21:07:28.980Z,3.30
2023-02-17T21:09:31.659Z,3.25
2023-02-17T21:11:34.622Z,2.63
2023-02-17T21:13:37.267Z,5.72
2023-02-17T21:15:41.275Z,3.25
2023-02-17T21:17:44.049Z,3.72
2023-02-17T21:19:47.179Z,2.25
2023-02-17T21:21:49.845Z,2.17
2023-02-17T21:23:52.512Z,2.60
2023-02-17T21:25:55.136Z,3.33
2023-02-17T21:27:57.728Z,3.03
2023-02-17T21:30:00.787Z,2.30
2023-02-17T21:32:05.596Z,2.80
2023-02-17T21:34:09.045Z,2.25
2023-02-17T21:36:13.229Z,3.55
2023-02-17T21:38:16.816Z,3.55
2023-02-17T21:40:19.610Z,2.25
2023-02-17T21:42:36.256Z,2.30
2023-02-17T21:44:55.020Z,2.78
2023-02-17T21:46:57.688Z,2.53
2023-02-17T21:49:02.899Z,2.28
2023-02-17T21:51:07.554Z,2.53
2023-02-17T21:53:10.180Z,2.70
2023-02-17T21:55:12.887Z,3.22
2023-02-17T21:57:15.515Z,2.40
2023-02-17T21:59:18.177Z,2.53
2023-02-17T22:01:22.813Z,2.15
2023-02-17T22:03:25.661Z,2.10
2023-02-17T22:05:32.834Z,2.70
2023-02-17T22:07:36.032Z,2.30
2023-02-17T22:09:38.754Z,3.05
2023-02-17T22:11:42.747Z,2.03
2023-02-17T22:13:45.813Z,2.08
2023-02-17T22:15:57.362Z,2.35
2023-02-17T22:17:59.993Z,1.90
2023-02-17T22:20:03.392Z,2.50
2023-02-17T22:22:07.428Z,1.48
2023-02-17T22:24:10.333Z,2.80
2023-02-17T22:26:15.138Z,2.00
2023-02-17T22:28:17.794Z,2.60
2023-02-17T22:30:20.821Z,2.25
2023-02-17T22:32:23.652Z,3.38
2023-02-17T22:34:27.621Z,2.10
2023-02-17T22:36:33.218Z,2.97
2023-02-17T22:38:37.490Z,2.63
2023-02-17T22:40:41.021Z,2.85
2023-02-17T22:42:43.607Z,3.70
2023-02-17T22:44:46.264Z,3.17
2023-02-17T22:46:48.901Z,2.25
2023-02-17T22:48:52.681Z,2.60
2023-02-17T22:50:55.402Z,2.28
2023-02-17T22:52:57.994Z,2.72
2023-02-17T22:55:02.108Z,1.73
2023-02-17T22:57:04.724Z,1.92
2023-02-17T22:59:07.536Z,2.83
2023-02-17T23:01:12.795Z,2.28
2023-02-17T23:03:16.211Z,1.90
2023-02-17T23:05:20.206Z,3.40
2023-02-17T23:07:23.597Z,2.05
2023-02-17T23:09:26.283Z,2.20
2023-02-17T23:11:49.774Z,2.38
2023-02-17T23:13:52.762Z,2.50
2023-02-17T23:15:55.886Z,2.55
2023-02-17T23:17:58.840Z,2.53
2023-02-17T23:20:01.504Z,1.95
2023-02-17T23:22:07.779Z,3.00
2023-02-17T23:24:10.403Z,3.03
2023-02-17T23:26:14.893Z,3.10
2023-02-17T23:28:19.930Z,2.45
2023-02-17T23:30:23.573Z,2.33
2023-02-17T23:32:26.270Z,2.17
2023-02-17T23:34:29.395Z,2.95
2023-02-17T23:36:32.171Z,2.85
2023-02-17T23:38:35.306Z,2.83
2023-02-17T23:40:38.328Z,2.70
2023-02-17T23:42:40.965Z,1.88
2023-02-17T23:44:44.988Z,2.65
2023-02-17T23:46:47.702Z,2.20
2023-02-17T23:48:50.427Z,3.00
2023-02-17T23:50:57.268Z,3.03
2023-02-17T23:52:59.944Z,3.85
2023-02-17T23:55:02.713Z,2.67
2023-02-17T23:57:05.847Z,2.53
2023-02-17T23:59:08.539Z,3.00
